Time;durP1;ratioP1;P1;durP2;ratioP2;P2;SDS_P1;SDS_P2;PMS_P1;PMS_P2;Temp;Humidity;BMP_temperature;BMP_pressure;BME280_temperature;BME280_humidity;BME280_pressure;Samples;Min_cycle;Max_cycle;Signal;HPM_P1;HPM_P2
2023/11/22 00:00:08;;;;;;;18.83;11.37;;;6.60;99.90;;;;;;5072814;28;20028;-82
2023/11/22 00:02:39;;;;;;;17.37;11.03;;;6.70;99.90;;;;;;5063909;28;20025;-81
2023/11/22 00:05:10;;;;;;;19.47;11.00;;;6.70;99.90;;;;;;5064422;28;20118;-82
2023/11/22 00:07:36;;;;;;;17.20;11.03;;;6.60;99.90;;;;;;5066033;28;20057;-82
2023/11/22 00:10:08;;;;;;;16.43;11.03;;;6.60;99.90;;;;;;5071534;28;20029;-82
2023/11/22 00:12:38;;;;;;;19.08;11.73;;;6.70;99.90;;;;;;5066509;28;20017;-80
2023/11/22 00:15:11;;;;;;;16.97;10.30;;;6.60;99.90;;;;;;5072403;28;20036;-81
2023/11/22 00:17:42;;;;;;;16.00;10.57;;;6.60;99.90;;;;;;5066038;28;20092;-78
2023/11/22 00:20:14;;;;;;;16.33;11.33;;;6.80;99.90;;;;;;5061753;28;20053;-76
2023/11/22 00:22:47;;;;;;;17.80;10.80;;;6.80;99.90;;;;;;5064744;28;20021;-78
2023/11/22 00:25:15;;;;;;;18.33;10.43;;;6.70;99.90;;;;;;5061750;28;20033;-76
2023/11/22 00:27:41;;;;;;;18.17;11.90;;;6.70;99.90;;;;;;5060993;28;20037;-78
2023/11/22 00:30:08;;;;;;;16.57;10.47;;;6.70;99.90;;;;;;5062921;28;20037;-78
2023/11/22 00:32:33;;;;;;;18.23;11.07;;;6.60;99.90;;;;;;5066648;28;20060;-77
2023/11/22 00:34:59;;;;;;;20.97;11.10;;;6.60;99.90;;;;;;5060497;28;20056;-77
2023/11/22 00:37:27;;;;;;;16.27;10.40;;;6.60;99.90;;;;;;5062429;28;20016;-77
2023/11/22 00:39:53;;;;;;;17.20;10.67;;;6.70;99.90;;;;;;5076537;28;20037;-81
2023/11/22 00:42:20;;;;;;;18.50;11.47;;;6.60;99.90;;;;;;5061049;28;20059;-77
2023/11/22 00:44:50;;;;;;;18.10;11.77;;;6.70;99.90;;;;;;5060148;28;20644;-78
2023/11/22 00:47:19;;;;;;;16.03;10.50;;;6.70;99.90;;;;;;5062050;28;20088;-77
2023/11/22 00:50:03;;;;;;;;;;;;;;;;;;;;;
2023/11/22 00:52:29;;;;;;;17.13;11.33;;;6.60;99.90;;;;;;5063204;28;20068;-77
2023/11/22 00:54:59;;;;;;;18.53;11.13;;;6.60;99.90;;;;;;5060953;28;20029;-77
2023/11/22 00:57:29;;;;;;;18.60;10.30;;;6.70;99.90;;;;;;5064172;28;20025;-77
2023/11/22 00:59:58;;;;;;;17.53;11.07;;;6.60;99.90;;;;;;5061635;28;20053;-78
2023/11/22 01:02:23;;;;;;;17.80;11.07;;;6.70;99.90;;;;;;5063377;28;20035;-79
2023/11/22 01:04:49;;;;;;;14.40;9.93;;;6.70;99.90;;;;;;5063841;28;20048;-78
2023/11/22 01:07:15;;;;;;;17.23;11.23;;;6.60;99.90;;;;;;5055493;28;20044;-80
2023/11/22 01:09:41;;;;;;;16.83;11.07;;;6.60;99.90;;;;;;5061890;28;20691;-78
2023/11/22 01:12:12;;;;;;;17.97;10.60;;;6.60;99.90;;;;;;5060560;28;20128;-77
2023/11/22 01:14:45;;;;;;;18.00;11.30;;;6.60;99.90;;;;;;5067600;28;20025;-76
2023/11/22 01:17:11;;;;;;;19.50;10.90;;;6.60;99.90;;;;;;5059555;28;20025;-76
2023/11/22 01:19:39;;;;;;;20.30;11.67;;;6.60;99.90;;;;;;5061802;28;20047;-79
2023/11/22 01:22:04;;;;;;;18.83;11.17;;;6.50;99.90;;;;;;5075676;28;20121;-77
2023/11/22 01:24:37;;;;;;;22.53;11.33;;;6.50;99.90;;;;;;5076804;28;20064;-78
2023/11/22 01:27:10;;;;;;;19.98;10.75;;;6.50;99.90;;;;;;5077337;28;20028;-77
2023/11/22 01:29:43;;;;;;;19.87;10.97;;;6.60;99.90;;;;;;5060708;28;20036;-80
2023/11/22 01:32:11;;;;;;;17.17;11.07;;;6.50;99.90;;;;;;5060822;28;20017;-78
2023/11/22 01:34:41;;;;;;;18.43;11.67;;;6.60;99.90;;;;;;5059721;28;20052;-79
2023/11/22 01:37:07;;;;;;;16.57;10.83;;;6.70;99.90;;;;;;5059213;28;20022;-79
2023/11/22 01:39:49;;;;;;;;;;;;;;;;;;;;;
2023/11/22 01:42:17;;;;;;;15.13;10.45;;;6.50;99.90;;;;;;5062411;28;20037;-76
2023/11/22 01:44:47;;;;;;;14.77;10.40;;;6.60;99.90;;;;;;5060411;28;20025;-79
2023/11/22 01:47:16;;;;;;;16.33;10.17;;;6.50;99.90;;;;;;5066851;28;20040;-79
2023/11/22 01:49:41;;;;;;;17.87;10.37;;;6.60;99.90;;;;;;5061860;28;20040;-80
2023/11/22 01:52:07;;;;;;;14.37;9.73;;;6.60;99.90;;;;;;5065431;28;20029;-79
2023/11/22 01:54:36;;;;;;;15.80;10.37;;;6.60;99.90;;;;;;5060895;28;20064;-77
2023/11/22 01:57:07;;;;;;;15.27;9.73;;;6.60;99.90;;;;;;5061141;28;20021;-80
2023/11/22 01:59:33;;;;;;;17.20;10.57;;;6.60;99.90;;;;;;5061832;28;20036;-80
2023/11/22 02:02:04;;;;;;;14.17;9.33;;;6.50;99.90;;;;;;5058513;28;20097;-77
2023/11/22 02:04:32;;;;;;;17.67;10.90;;;6.40;99.90;;;;;;5062141;28;20029;-77
2023/11/22 02:06:58;;;;;;;15.73;10.30;;;6.40;99.90;;;;;;5060657;28;20025;-76
2023/11/22 02:09:24;;;;;;;18.27;10.40;;;6.40;99.90;;;;;;5060111;28;20064;-79
2023/11/22 02:11:53;;;;;;;15.13;10.00;;;6.40;99.90;;;;;;5066055;28;20025;-77
2023/11/22 02:14:24;;;;;;;14.57;10.23;;;6.30;99.90;;;;;;5062376;28;20080;-80
2023/11/22 02:16:55;;;;;;;16.60;10.10;;;6.40;99.90;;;;;;5061309;28;20508;-77
2023/11/22 02:19:24;;;;;;;14.70;9.33;;;6.40;99.90;;;;;;5068613;28;20029;-77
2023/11/22 02:21:51;;;;;;;17.00;9.87;;;6.40;99.90;;;;;;5059542;28;20025;-79
2023/11/22 02:24:17;;;;;;;15.57;10.17;;;6.40;99.90;;;;;;5060437;28;20040;-78
2023/11/22 02:26:46;;;;;;;14.53;10.37;;;6.40;99.90;;;;;;5059386;28;20025;-79
2023/11/22 02:29:12;;;;;;;17.17;9.90;;;6.20;99.90;;;;;;5064997;28;20262;-76
2023/11/22 02:31:45;;;;;;;16.07;9.57;;;6.30;99.90;;;;;;5057975;28;20040;-79
2023/11/22 02:34:11;;;;;;;14.60;9.60;;;6.20;99.90;;;;;;5064777;28;20025;-77
2023/11/22 02:36:37;;;;;;;17.87;9.27;;;6.20;99.90;;;;;;5059953;28;21752;-80
2023/11/22 02:39:03;;;;;;;14.33;9.30;;;6.20;99.90;;;;;;5058090;28;20120;-77
2023/11/22 02:41:32;;;;;;;16.03;9.67;;;6.30;99.90;;;;;;5060678;28;20017;-78
2023/11/22 02:43:57;;;;;;;13.73;9.40;;;6.20;99.90;;;;;;5059970;28;20029;-80
2023/11/22 02:46:23;;;;;;;15.63;9.97;;;6.20;99.90;;;;;;5060351;28;20033;-78
2023/11/22 02:48:51;;;;;;;12.20;8.83;;;6.20;99.90;;;;;;5063915;28;20037;-79
2023/11/22 02:51:17;;;;;;;16.73;10.20;;;6.20;99.90;;;;;;5059055;28;20032;-77
2023/11/22 02:53:48;;;;;;;14.17;8.47;;;6.20;99.90;;;;;;5058777;28;20029;-78
2023/11/22 02:56:16;;;;;;;18.47;9.43;;;6.10;99.90;;;;;;5058793;28;20054;-79
2023/11/22 02:58:45;;;;;;;12.37;8.57;;;6.10;99.90;;;;;;5059177;28;20264;-78
2023/11/22 03:01:14;;;;;;;14.63;9.67;;;6.10;99.90;;;;;;5059346;28;20048;-77
2023/11/22 03:03:40;;;;;;;13.80;9.20;;;6.20;99.90;;;;;;5076296;28;20113;-76
2023/11/22 03:06:06;;;;;;;15.97;10.37;;;6.10;99.90;;;;;;5058458;28;20020;-77
2023/11/22 03:08:32;;;;;;;15.73;9.47;;;6.10;99.90;;;;;;5064110;28;20021;-80
2023/11/22 03:11:05;;;;;;;16.20;9.80;;;6.10;99.90;;;;;;5058777;28;20083;-77
2023/11/22 03:13:33;;;;;;;16.43;9.90;;;6.00;99.90;;;;;;5059736;28;20076;-79
2023/11/22 03:15:59;;;;;;;13.40;9.50;;;5.90;99.90;;;;;;5058853;28;20036;-79
2023/11/22 03:18:26;;;;;;;16.73;11.07;;;5.90;99.90;;;;;;5057091;28;20029;-79
2023/11/22 03:20:54;;;;;;;13.47;9.67;;;6.00;99.90;;;;;;5061809;28;20116;-77
2023/11/22 03:23:22;;;;;;;15.67;10.33;;;5.80;99.90;;;;;;5059298;28;20037;-76
2023/11/22 03:25:48;;;;;;;15.80;10.13;;;5.90;99.90;;;;;;5058480;28;20036;-79
2023/11/22 03:28:14;;;;;;;16.53;9.63;;;5.80;99.90;;;;;;5061363;28;21517;-80
2023/11/22 03:30:42;;;;;;;17.63;11.00;;;5.90;99.90;;;;;;5055878;28;20029;-77
2023/11/22 03:33:08;;;;;;;17.70;10.53;;;5.90;99.90;;;;;;5062852;28;20025;-80
2023/11/22 03:35:34;;;;;;;15.33;10.27;;;6.00;99.90;;;;;;5058416;28;20047;-80
2023/11/22 03:38:00;;;;;;;18.87;11.30;;;5.80;99.90;;;;;;5057954;28;20278;-79
2023/11/22 03:40:28;;;;;;;18.37;10.70;;;5.80;99.90;;;;;;5055732;28;20164;-77
2023/11/22 03:42:56;;;;;;;15.30;10.87;;;5.80;99.90;;;;;;5059655;28;20036;-81
2023/11/22 03:45:22;;;;;;;16.80;10.67;;;5.80;99.90;;;;;;5057586;28;20048;-79
2023/11/22 03:47:47;;;;;;;18.90;10.83;;;5.70;99.90;;;;;;5059856;28;20100;-79
2023/11/22 03:50:18;;;;;;;18.70;12.27;;;5.60;99.90;;;;;;5057437;28;20036;-80
2023/11/22 03:52:46;;;;;;;19.77;11.57;;;5.80;99.90;;;;;;5052170;28;20603;-77
2023/11/22 03:55:12;;;;;;;20.17;12.10;;;5.60;99.90;;;;;;5058335;28;20020;-79
2023/11/22 03:57:38;;;;;;;17.37;12.30;;;5.70;99.90;;;;;;5057168;28;20029;-77
2023/11/22 04:00:16;;;;;;;18.70;11.57;;;5.60;99.90;;;;;;5057707;28;20046;-78
2023/11/22 04:02:44;;;;;;;23.13;13.73;;;5.50;99.90;;;;;;5058165;28;20033;-81
2023/11/22 04:05:12;;;;;;;20.97;12.33;;;5.40;99.90;;;;;;5058811;28;20780;-78
2023/11/22 04:07:39;;;;;;;19.57;12.17;;;5.30;99.90;;;;;;5059235;28;20037;-77
2023/11/22 04:10:07;;;;;;;20.03;11.87;;;5.30;99.90;;;;;;5058537;28;20033;-78
2023/11/22 04:12:33;;;;;;;21.43;12.87;;;5.30;99.90;;;;;;5059029;28;20036;-77
2023/11/22 04:14:59;;;;;;;23.60;13.57;;;5.30;99.90;;;;;;5060180;28;20092;-77
2023/11/22 04:17:27;;;;;;;18.47;12.27;;;5.30;99.90;;;;;;5060530;28;20061;-76
2023/11/22 04:19:53;;;;;;;19.47;12.80;;;5.20;99.90;;;;;;5057509;28;20029;-78
2023/11/22 04:22:21;;;;;;;22.90;13.90;;;5.30;99.90;;;;;;5059199;28;20041;-75
2023/11/22 04:24:50;;;;;;;26.10;14.53;;;5.00;99.90;;;;;;5058823;28;20033;-80
2023/11/22 04:27:18;;;;;;;23.13;13.70;;;5.10;99.90;;;;;;5058788;28;20025;-77
2023/11/22 04:29:46;;;;;;;22.00;14.37;;;5.00;99.90;;;;;;5057643;28;20029;-79
2023/11/22 04:32:15;;;;;;;20.33;13.37;;;5.10;99.90;;;;;;5062487;28;20056;-77
2023/11/22 04:34:40;;;;;;;22.93;13.50;;;5.00;99.90;;;;;;5057346;28;20283;-78
2023/11/22 04:37:09;;;;;;;26.67;15.90;;;5.00;99.90;;;;;;5058129;28;20092;-79
2023/11/22 04:39:35;;;;;;;24.73;14.73;;;5.00;99.90;;;;;;5059848;28;20101;-78
2023/11/22 04:42:04;;;;;;;26.60;15.93;;;4.90;99.90;;;;;;5060087;28;20025;-78
2023/11/22 04:44:32;;;;;;;23.10;15.20;;;4.80;99.90;;;;;;5072024;28;20021;-80
2023/11/22 04:46:59;;;;;;;23.57;14.40;;;4.90;99.90;;;;;;5063575;28;20017;-78
2023/11/22 04:49:27;;;;;;;24.87;15.60;;;4.90;99.90;;;;;;5073810;28;20035;-78
2023/11/22 04:51:55;;;;;;;32.43;16.10;;;4.90;99.90;;;;;;5068523;28;20030;-80
2023/11/22 04:54:21;;;;;;;25.63;15.40;;;4.80;99.90;;;;;;5055808;28;20029;-79
2023/11/22 04:56:47;;;;;;;27.10;16.43;;;4.80;99.90;;;;;;5065161;28;20208;-79
2023/11/22 04:59:15;;;;;;;21.80;14.87;;;4.80;99.90;;;;;;5069608;28;20028;-80
2023/11/22 05:01:51;;;;;;;;;;;;;;;;;;;;;
2023/11/22 05:04:18;;;;;;;29.40;16.13;;;4.70;99.90;;;;;;5068758;28;20045;-77
2023/11/22 05:06:47;;;;;;;24.13;14.73;;;4.70;99.90;;;;;;5076498;28;20009;-80
2023/11/22 05:09:17;;;;;;;27.20;17.07;;;4.80;99.90;;;;;;5075278;28;20052;-75
2023/11/22 05:11:48;;;;;;;27.20;15.83;;;4.60;99.90;;;;;;5075605;28;20037;-76
2023/11/22 05:14:14;;;;;;;22.97;14.50;;;4.70;99.90;;;;;;5067834;28;20029;-76
2023/11/22 05:16:39;;;;;;;24.93;15.67;;;4.60;99.90;;;;;;5070377;28;20032;-76
2023/11/22 05:19:08;;;;;;;26.40;14.77;;;4.60;99.90;;;;;;5066068;28;20048;-76
2023/11/22 05:21:44;;;;;;;27.17;15.97;;;4.60;99.90;;;;;;5070055;28;20037;-80
2023/11/22 05:24:14;;;;;;;22.17;14.23;;;4.60;99.90;;;;;;5077016;28;20023;-77
2023/11/22 05:26:42;;;;;;;26.07;15.37;;;4.60;99.90;;;;;;5069263;28;19997;-79
2023/11/22 05:29:11;;;;;;;24.10;14.70;;;4.50;99.90;;;;;;5064196;28;20029;-81
2023/11/22 05:31:39;;;;;;;27.60;16.37;;;4.50;99.90;;;;;;5060787;28;20030;-79
2023/11/22 05:34:04;;;;;;;24.53;14.77;;;4.50;99.90;;;;;;5073946;28;20021;-80
2023/11/22 05:36:35;;;;;;;29.87;17.73;;;4.40;99.90;;;;;;5075153;28;20071;-76
2023/11/22 05:39:03;;;;;;;27.73;16.57;;;4.50;99.90;;;;;;5069671;28;20021;-77
2023/11/22 05:41:32;;;;;;;24.67;15.23;;;4.40;99.90;;;;;;5076171;28;20056;-82
2023/11/22 05:43:58;;;;;;;27.93;16.57;;;4.40;99.90;;;;;;5072697;28;20052;-78
2023/11/22 05:46:29;;;;;;;29.80;16.23;;;4.40;99.90;;;;;;5076307;28;20005;-78
2023/11/22 05:49:05;;;;;;;26.47;16.47;;;4.20;99.90;;;;;;5073517;28;20041;-77
2023/11/22 05:51:33;;;;;;;29.43;15.73;;;4.20;99.90;;;;;;5039622;28;20033;-76
2023/11/22 05:54:12;;;;;;;;;;;;;;;;;;;;;
2023/11/22 05:56:41;;;;;;;27.70;14.73;;;4.20;99.90;;;;;;5076458;28;20040;-79
2023/11/22 05:59:06;;;;;;;25.33;15.97;;;4.20;99.90;;;;;;5073042;28;20093;-77
2023/11/22 06:01:32;;;;;;;28.57;15.93;;;4.20;99.90;;;;;;5067797;28;20045;-76
2023/11/22 06:03:58;;;;;;;25.00;14.83;;;4.10;99.90;;;;;;5058714;28;20028;-79
2023/11/22 06:06:26;;;;;;;28.07;15.77;;;4.10;99.90;;;;;;5065212;28;20052;-80
2023/11/22 06:08:53;;;;;;;27.90;16.00;;;4.00;99.90;;;;;;5057028;28;20028;-83
2023/11/22 06:11:21;;;;;;;27.83;16.00;;;4.00;99.90;;;;;;5073225;28;20045;-87
2023/11/22 06:13:47;;;;;;;27.57;16.43;;;4.00;99.90;;;;;;5063240;28;20091;-83
2023/11/22 06:16:13;;;;;;;34.20;16.97;;;4.00;99.90;;;;;;5071663;28;20020;-76
2023/11/22 06:18:40;;;;;;;24.03;14.67;;;3.90;99.90;;;;;;5067544;28;20117;-83
2023/11/22 06:21:09;;;;;;;28.97;15.27;;;3.90;99.90;;;;;;5053502;28;20028;-83
2023/11/22 06:23:54;;;;;;;25.97;14.40;;;3.80;99.90;;;;;;5074418;28;20076;-79
2023/11/22 06:26:20;;;;;;;25.00;14.00;;;3.90;99.90;;;;;;5056865;28;20037;-85
2023/11/22 06:28:49;;;;;;;28.97;15.47;;;3.80;99.90;;;;;;5055293;28;20068;-83
2023/11/22 06:31:15;;;;;;;29.53;15.70;;;3.80;99.90;;;;;;5055264;28;20029;-85
2023/11/22 06:33:41;;;;;;;26.40;15.50;;;3.70;99.90;;;;;;5055910;28;20037;-87
2023/11/22 06:36:11;;;;;;;23.07;13.67;;;3.70;99.90;;;;;;5068718;28;20319;-82
2023/11/22 06:38:37;;;;;;;26.60;14.80;;;3.60;99.90;;;;;;5052512;28;20044;-85
2023/11/22 06:41:03;;;;;;;26.33;13.87;;;3.60;99.90;;;;;;5053347;28;20029;-86
2023/11/22 06:43:28;;;;;;;25.03;15.13;;;3.60;99.90;;;;;;5054289;28;21643;-88
2023/11/22 06:45:55;;;;;;;26.40;15.47;;;3.50;99.90;;;;;;5055583;28;20037;-83
2023/11/22 06:48:21;;;;;;;25.87;14.00;;;3.50;99.90;;;;;;5072212;28;20020;-84
2023/11/22 06:50:49;;;;;;;27.97;14.50;;;3.40;99.90;;;;;;5055662;28;20048;-85
2023/11/22 06:53:20;;;;;;;29.73;15.27;;;3.40;99.90;;;;;;5053983;28;20097;-87
2023/11/22 06:55:48;;;;;;;27.57;15.80;;;3.50;99.90;;;;;;5056906;28;20088;-82
2023/11/22 06:58:14;;;;;;;29.07;15.40;;;3.40;99.90;;;;;;5052810;28;20029;-84
2023/11/22 07:00:40;;;;;;;31.03;15.33;;;3.40;99.90;;;;;;5052326;28;20048;-83
2023/11/22 07:03:10;;;;;;;30.53;15.13;;;3.30;99.90;;;;;;5055742;28;20048;-87
2023/11/22 07:05:36;;;;;;;25.43;14.63;;;3.20;99.90;;;;;;5053413;28;20094;-86
2023/11/22 07:08:04;;;;;;;27.73;16.20;;;3.30;99.90;;;;;;5055924;28;20071;-83
2023/11/22 07:10:33;;;;;;;25.97;14.63;;;3.10;99.90;;;;;;5054970;28;20037;-83
2023/11/22 07:13:04;;;;;;;29.23;15.07;;;3.20;99.90;;;;;;5055492;28;20094;-86
2023/11/22 07:15:30;;;;;;;79.30;18.70;;;3.10;99.90;;;;;;5059134;28;20040;-87
2023/11/22 07:17:56;;;;;;;29.00;14.77;;;3.10;99.90;;;;;;5056805;28;20021;-85
2023/11/22 07:20:23;;;;;;;29.10;15.90;;;3.10;99.90;;;;;;5056940;28;20060;-85
2023/11/22 07:22:54;;;;;;;37.63;15.93;;;3.10;99.90;;;;;;5058250;28;20052;-88
2023/11/22 07:25:24;;;;;;;28.27;14.17;;;3.10;99.90;;;;;;5059331;28;20460;-84
2023/11/22 07:27:51;;;;;;;25.57;14.83;;;3.10;99.90;;;;;;5054552;28;20043;-85
2023/11/22 07:30:22;;;;;;;32.30;16.33;;;3.20;99.90;;;;;;5071598;28;20059;-86
2023/11/22 07:32:54;;;;;;;30.13;15.27;;;3.20;99.90;;;;;;5060956;28;20040;-84
2023/11/22 07:35:20;;;;;;;27.33;15.35;;;3.10;99.90;;;;;;5058117;28;20025;-85
2023/11/22 07:37:51;;;;;;;26.47;14.97;;;3.10;99.90;;;;;;5074188;28;21315;-83
2023/11/22 07:40:19;;;;;;;29.50;15.10;;;3.10;99.90;;;;;;5057929;28;20088;-80
2023/11/22 07:42:47;;;;;;;23.80;13.30;;;3.10;99.90;;;;;;5054671;28;20450;-86
2023/11/22 07:45:17;;;;;;;28.23;16.00;;;3.10;99.90;;;;;;5057608;28;20578;-84
2023/11/22 07:47:43;;;;;;;25.20;14.13;;;3.10;99.90;;;;;;5073864;28;20028;-82
2023/11/22 07:50:17;;;;;;;27.47;14.33;;;3.10;99.90;;;;;;5057202;28;20016;-84
2023/11/22 07:52:45;;;;;;;26.47;14.83;;;3.20;99.90;;;;;;5054636;28;20033;-86
2023/11/22 07:55:11;;;;;;;29.47;16.43;;;3.20;99.90;;;;;;5051855;28;20039;-85
2023/11/22 07:57:40;;;;;;;29.63;14.87;;;3.20;99.90;;;;;;5056877;28;20045;-83
2023/11/22 08:00:07;;;;;;;26.13;15.90;;;3.30;99.90;;;;;;5058549;28;20149;-85
2023/11/22 08:02:38;;;;;;;25.53;15.33;;;3.30;99.90;;;;;;5056440;28;20029;-88
2023/11/22 08:05:08;;;;;;;27.13;16.03;;;3.30;99.90;;;;;;5055980;28;20029;-84
2023/11/22 08:07:35;;;;;;;33.67;16.03;;;3.40;99.90;;;;;;5053547;28;20107;-82
2023/11/22 08:10:09;;;;;;;26.33;16.07;;;3.40;99.90;;;;;;5054647;28;20025;-84
2023/11/22 08:12:38;;;;;;;24.37;14.97;;;3.30;99.90;;;;;;5052222;28;20055;-85
2023/11/22 08:15:09;;;;;;;19.60;12.67;;;3.40;99.90;;;;;;5052967;28;20052;-87
2023/11/22 08:17:40;;;;;;;23.37;14.10;;;3.50;99.90;;;;;;5053758;28;20029;-83
2023/11/22 08:20:11;;;;;;;27.87;13.73;;;3.40;99.90;;;;;;5056264;28;20419;-85
2023/11/22 08:22:40;;;;;;;24.57;14.63;;;3.50;99.90;;;;;;5054027;28;20056;-85
2023/11/22 08:25:12;;;;;;;22.40;14.13;;;3.40;99.90;;;;;;5054495;28;20040;-83
2023/11/22 08:27:40;;;;;;;26.17;13.98;;;3.60;99.90;;;;;;5053306;28;20041;-85
2023/11/22 08:30:12;;;;;;;30.60;15.83;;;3.60;99.90;;;;;;5051880;28;20033;-83
2023/11/22 08:32:53;;;;;;;22.77;13.65;;;3.60;99.90;;;;;;5042248;28;20092;-87
2023/11/22 08:35:37;;;;;;;27.93;13.57;;;3.70;99.90;;;;;;5054898;28;20540;-82
2023/11/22 08:38:04;;;;;;;28.33;14.73;;;3.70;99.90;;;;;;5061257;28;20052;-84
2023/11/22 08:40:40;;;;;;;24.87;14.13;;;3.70;99.90;;;;;;5063212;28;20037;-80
2023/11/22 08:43:06;;;;;;;27.33;14.20;;;3.70;99.90;;;;;;5079377;28;20323;-84
2023/11/22 08:45:39;;;;;;;18.67;11.57;;;3.70;99.90;;;;;;5063167;28;20025;-79
2023/11/22 08:48:06;;;;;;;19.47;12.37;;;3.70;99.90;;;;;;5060355;28;20045;-84
2023/11/22 08:50:33;;;;;;;25.90;13.83;;;3.80;99.90;;;;;;5064053;28;20029;-83
2023/11/22 08:52:59;;;;;;;25.17;13.23;;;3.90;99.90;;;;;;5055499;28;20049;-84
2023/11/22 08:55:26;;;;;;;22.43;12.50;;;3.90;99.90;;;;;;5058089;28;20036;-83
2023/11/22 08:57:52;;;;;;;23.87;13.70;;;4.00;99.90;;;;;;5060655;28;20068;-86
2023/11/22 09:00:22;;;;;;;18.13;10.53;;;4.00;99.90;;;;;;5059511;28;20029;-83
2023/11/22 09:02:50;;;;;;;19.23;10.90;;;4.10;99.90;;;;;;5054895;28;20018;-80
2023/11/22 09:05:21;;;;;;;17.00;10.77;;;4.10;99.90;;;;;;5067688;28;20037;-83
2023/11/22 09:07:47;;;;;;;21.13;10.60;;;4.20;99.90;;;;;;5068153;28;20052;-82
2023/11/22 09:10:14;;;;;;;15.43;9.83;;;4.10;99.90;;;;;;5065679;28;20130;-78
2023/11/22 09:12:40;;;;;;;14.10;8.97;;;4.20;99.90;;;;;;5064727;28;20026;-78
2023/11/22 09:15:17;;;;;;;20.17;10.17;;;4.20;99.90;;;;;;5084269;28;20059;-84
2023/11/22 09:17:43;;;;;;;18.60;9.97;;;4.30;99.90;;;;;;5059109;28;20125;-84
2023/11/22 09:20:23;;;;;;;19.13;11.13;;;4.40;99.90;;;;;;5059088;28;20508;-83
2023/11/22 09:22:51;;;;;;;14.60;8.83;;;4.50;99.90;;;;;;5061740;28;20028;-79
2023/11/22 09:25:22;;;;;;;16.10;10.07;;;4.50;99.90;;;;;;5067723;28;20013;-78
2023/11/22 09:27:51;;;;;;;60.97;27.03;;;4.50;99.90;;;;;;5068200;28;20027;-78
2023/11/22 09:30:34;;;;;;;56.07;22.10;;;4.50;99.90;;;;;;5072105;28;20038;-77
2023/11/22 09:33:04;;;;;;;33.43;12.23;;;4.50;99.90;;;;;;5081926;28;20021;-78
2023/11/22 09:35:33;;;;;;;13.60;8.27;;;4.60;99.90;;;;;;5067094;28;20041;-78
2023/11/22 09:38:15;;;;;;;17.43;9.27;;;4.70;99.90;;;;;;5068654;28;20005;-78
2023/11/22 09:40:49;;;;;;;12.85;7.50;;;4.80;99.90;;;;;;5070949;28;20037;-78
2023/11/22 09:43:20;;;;;;;20.43;8.40;;;4.70;99.90;;;;;;5069378;28;20025;-78
2023/11/22 09:45:47;;;;;;;14.00;7.20;;;4.80;99.90;;;;;;5070503;28;20100;-78
2023/11/22 09:48:23;;;;;;;13.77;9.30;;;4.80;99.90;;;;;;5067412;28;20041;-80
2023/11/22 09:51:09;;;;;;;12.87;7.17;;;4.70;99.90;;;;;;5074205;28;20057;-80
2023/11/22 09:53:56;;;;;;;15.57;6.93;;;4.70;99.90;;;;;;5072286;28;20043;-78
2023/11/22 09:56:28;;;;;;;11.97;7.40;;;4.70;99.90;;;;;;5079933;28;20052;-78
2023/11/22 09:59:17;;;;;;;11.57;6.75;;;5.00;99.90;;;;;;5071722;28;20095;-78
2023/11/22 10:01:46;;;;;;;12.00;6.63;;;4.90;99.90;;;;;;5071758;28;20044;-78
2023/11/22 10:04:15;;;;;;;11.80;5.80;;;5.00;99.90;;;;;;5069002;28;20093;-78
2023/11/22 10:06:46;;;;;;;10.00;6.63;;;5.10;99.90;;;;;;5072789;28;20014;-78
2023/11/22 10:09:19;;;;;;;7.97;5.07;;;5.20;99.90;;;;;;5069564;28;20096;-79
2023/11/22 10:11:45;;;;;;;10.33;5.30;;;5.20;99.90;;;;;;5067465;28;20109;-78
2023/11/22 10:14:23;;;;;;;10.13;5.20;;;5.20;99.90;;;;;;5067968;28;20036;-77
2023/11/22 10:17:00;;;;;;;11.73;6.43;;;5.40;99.90;;;;;;5073436;28;20033;-79
2023/11/22 10:19:26;;;;;;;11.23;6.27;;;5.30;99.90;;;;;;5067540;28;20021;-78
2023/11/22 10:22:24;;;;;;;9.77;5.10;;;5.30;99.90;;;;;;5066753;28;20037;-79
2023/11/22 10:24:49;;;;;;;8.67;4.70;;;5.30;99.90;;;;;;5061334;28;20021;-78
2023/11/22 10:27:20;;;;;;;9.73;5.43;;;5.40;99.90;;;;;;5069639;28;20039;-78
2023/11/22 10:29:48;;;;;;;7.23;4.30;;;5.50;99.90;;;;;;5068316;28;20026;-77
2023/11/22 10:32:18;;;;;;;7.47;4.77;;;5.60;99.90;;;;;;5067771;28;20040;-80
2023/11/22 10:34:52;;;;;;;9.20;5.10;;;5.70;99.90;;;;;;5072620;28;20178;-78
2023/11/22 10:37:24;;;;;;;8.77;5.10;;;5.80;99.90;;;;;;5070527;28;20071;-80
2023/11/22 10:39:53;;;;;;;10.48;5.93;;;5.90;99.90;;;;;;5066987;28;20013;-78
2023/11/22 10:42:21;;;;;;;8.43;5.53;;;6.00;99.90;;;;;;5070586;28;20059;-80
2023/11/22 10:44:51;;;;;;;11.53;5.87;;;6.00;99.90;;;;;;5075456;28;20071;-81
2023/11/22 10:47:19;;;;;;;17.20;6.90;;;5.90;99.90;;;;;;5077847;28;20089;-80
2023/11/22 10:49:45;;;;;;;8.43;5.90;;;5.90;99.90;;;;;;5077528;28;20024;-80
2023/11/22 10:52:18;;;;;;;12.40;5.60;;;5.80;99.90;;;;;;5075223;28;20063;-81
2023/11/22 10:54:56;;;;;;;10.30;5.90;;;5.60;99.90;;;;;;5072310;28;20024;-80
2023/11/22 10:57:26;;;;;;;9.77;4.63;;;5.70;99.90;;;;;;5076835;28;20017;-82
2023/11/22 11:00:00;;;;;;;10.03;5.37;;;5.70;99.90;;;;;;5076845;28;20079;-79
2023/11/22 11:02:30;;;;;;;8.13;5.17;;;5.60;99.90;;;;;;5065974;28;20005;-79
2023/11/22 11:05:02;;;;;;;6.47;4.40;;;5.70;99.90;;;;;;5088942;28;20014;-78
2023/11/22 11:07:30;;;;;;;9.68;4.60;;;5.80;99.90;;;;;;5068924;28;20035;-80
2023/11/22 11:10:00;;;;;;;6.60;4.27;;;5.90;99.90;;;;;;5067404;28;20025;-82
2023/11/22 11:12:28;;;;;;;7.97;4.30;;;5.80;99.90;;;;;;5074836;28;20014;-81
2023/11/22 11:15:02;;;;;;;7.30;4.20;;;6.00;99.90;;;;;;5074481;28;20093;-81
2023/11/22 11:17:31;;;;;;;8.93;4.40;;;6.00;99.90;;;;;;5064473;28;20037;-80
2023/11/22 11:19:58;;;;;;;5.50;3.67;;;6.00;99.90;;;;;;5073282;28;20013;-81
2023/11/22 11:22:24;;;;;;;6.13;3.80;;;6.00;99.90;;;;;;5078114;28;20009;-82
2023/11/22 11:25:08;;;;;;;5.03;3.33;;;6.10;99.90;;;;;;5073016;28;20009;-79
2023/11/22 11:27:38;;;;;;;7.43;3.60;;;6.20;99.90;;;;;;5077588;28;20036;-80
2023/11/22 11:30:48;;;;;;;6.33;3.87;;;6.30;99.90;;;;;;5073677;28;20037;-81
2023/11/22 11:33:32;;;;;;;5.53;3.53;;;6.20;99.90;;;;;;5082117;28;20025;-83
2023/11/22 11:36:01;;;;;;;8.10;3.63;;;6.30;99.90;;;;;;5074489;28;20021;-80
2023/11/22 11:38:35;;;;;;;5.90;2.73;;;6.40;99.90;;;;;;5072248;28;20028;-83
2023/11/22 11:41:11;;;;;;;11.67;4.40;;;6.50;99.90;;;;;;5074713;28;20026;-82
2023/11/22 11:43:49;;;;;;;9.43;4.30;;;6.50;99.90;;;;;;5070625;28;20025;-80
2023/11/22 11:46:18;;;;;;;5.27;3.17;;;6.40;99.90;;;;;;5070624;28;20008;-78
2023/11/22 11:48:47;;;;;;;3.80;2.17;;;6.40;99.90;;;;;;5077793;28;20037;-81
2023/11/22 11:51:20;;;;;;;4.93;3.20;;;6.30;99.90;;;;;;5072169;28;20044;-82
2023/11/22 11:53:49;;;;;;;5.68;3.30;;;6.20;99.90;;;;;;5079142;28;20032;-80
2023/11/22 11:56:15;;;;;;;9.37;3.53;;;6.30;99.90;;;;;;5069650;28;20071;-79
2023/11/22 11:58:50;;;;;;;4.70;3.03;;;6.60;99.90;;;;;;5073310;28;20017;-82
2023/11/22 12:01:29;;;;;;;5.00;3.33;;;6.60;99.90;;;;;;5090814;28;20048;-82
2023/11/22 12:04:09;;;;;;;8.80;3.50;;;6.60;99.90;;;;;;5077044;28;20025;-83
2023/11/22 12:06:42;;;;;;;6.30;3.40;;;6.60;99.90;;;;;;5074490;28;20105;-83
2023/11/22 12:09:10;;;;;;;7.30;4.23;;;6.70;99.90;;;;;;5075556;28;20029;-81
2023/11/22 12:11:50;;;;;;;8.07;3.23;;;6.90;99.90;;;;;;5081452;28;20025;-83
2023/11/22 12:14:18;;;;;;;6.93;3.17;;;6.90;99.90;;;;;;5074623;28;20029;-84
2023/11/22 12:16:52;;;;;;;5.33;3.10;;;7.00;99.90;;;;;;5081849;28;20101;-81
2023/11/22 12:19:23;;;;;;;4.80;3.20;;;6.90;99.90;;;;;;5076187;28;20024;-79
2023/11/22 12:21:49;;;;;;;5.17;3.03;;;6.80;99.90;;;;;;5070685;28;20176;-80
2023/11/22 12:24:15;;;;;;;5.93;3.63;;;6.80;99.90;;;;;;5071452;28;20055;-78
2023/11/22 12:26:50;;;;;;;4.93;2.87;;;7.10;99.90;;;;;;5073845;28;20064;-78
2023/11/22 12:29:23;;;;;;;7.07;3.40;;;6.70;99.90;;;;;;5071853;28;20013;-79
2023/11/22 12:31:56;;;;;;;5.45;3.42;;;6.40;99.90;;;;;;5081622;28;20093;-78
2023/11/22 12:34:25;;;;;;;6.47;3.50;;;6.40;99.90;;;;;;5073064;28;20024;-78
2023/11/22 12:36:51;;;;;;;5.80;3.60;;;6.30;99.90;;;;;;5069765;28;20097;-80
2023/11/22 12:39:22;;;;;;;4.97;3.50;;;6.20;99.90;;;;;;5069999;28;20052;-79
2023/11/22 12:41:52;;;;;;;5.60;3.20;;;6.20;99.90;;;;;;5074237;28;20033;-79
2023/11/22 12:44:21;;;;;;;5.27;3.43;;;6.30;99.90;;;;;;5070936;28;20048;-79
2023/11/22 12:47:10;;;;;;;6.00;3.70;;;6.20;99.90;;;;;;5070403;28;20025;-80
2023/11/22 12:49:48;;;;;;;6.70;3.37;;;6.20;99.90;;;;;;5073555;28;20013;-77
2023/11/22 12:52:17;;;;;;;5.77;3.13;;;6.20;99.90;;;;;;5071552;28;20048;-77
2023/11/22 12:54:42;;;;;;;6.17;3.20;;;6.20;99.90;;;;;;5071826;28;20053;-79
2023/11/22 12:57:12;;;;;;;6.73;2.97;;;6.20;99.90;;;;;;5071189;28;20059;-78
2023/11/22 12:59:41;;;;;;;7.23;3.20;;;6.10;99.90;;;;;;5071838;28;20017;-78